Time;durP1;ratioP1;P1;durP2;ratioP2;P2;SDS_P1;SDS_P2;PMS_P1;PMS_P2;Temp;Humidity;BMP_temperature;BMP_pressure;BME280_temperature;BME280_humidity;BME280_pressure;Samples;Min_cycle;Max_cycle;Signal;HPM_P1;HPM_P2
2023/06/05 00:02:15;;;;;;;8.40;5.30;;;;;;;;;;6284765;22;20452;-95
2023/06/05 00:05:01;;;;;;;10.45;5.72;;;;;;;;;;6306135;22;20036;-94
2023/06/05 00:07:46;;;;;;;14.00;6.10;;;;;;;;;;6305993;22;20064;-93
2023/06/05 00:10:31;;;;;;;10.18;5.20;;;;;;;;;;6307512;22;20042;-95
2023/06/05 00:13:19;;;;;;;9.45;5.35;;;;;;;;;;6306052;22;20025;-94
2023/06/05 00:16:03;;;;;;;10.25;6.45;;;;;;;;;;6306222;22;20376;-94
2023/06/05 00:18:48;;;;;;;8.80;6.07;;;;;;;;;;6306761;22;20052;-94
2023/06/05 00:21:35;;;;;;;10.57;5.15;;;;;;;;;;6307656;22;20053;-94
2023/06/05 00:24:20;;;;;;;8.90;5.53;;;;;;;;;;6308936;22;20106;-93
2023/06/05 00:27:07;;;;;;;11.23;5.95;;;;;;;;;;6307884;22;20049;-93
2023/06/05 00:30:00;;;;;;;13.48;6.07;;;;;;;;;;6285823;22;20069;-94
2023/06/05 00:32:47;;;;;;;12.98;6.25;;;;;;;;;;6308606;22;20014;-94
2023/06/05 00:35:32;;;;;;;8.95;5.85;;;;;;;;;;6308076;22;20014;-94
2023/06/05 00:38:17;;;;;;;10.55;6.45;;;;;;;;;;6309074;22;20349;-94
2023/06/05 00:41:02;;;;;;;12.02;6.25;;;;;;;;;;6307378;22;20022;-94
2023/06/05 00:43:52;;;;;;;16.00;6.32;;;;;;;;;;6308604;22;20495;-94
2023/06/05 00:46:40;;;;;;;10.30;5.70;;;;;;;;;;6309016;22;20033;-94
2023/06/05 00:49:25;;;;;;;9.52;6.07;;;;;;;;;;6308015;22;20460;-93
2023/06/05 00:52:13;;;;;;;9.38;5.85;;;;;;;;;;6309151;22;20029;-94
2023/06/05 00:55:01;;;;;;;11.77;5.90;;;;;;;;;;6308060;22;20056;-94
2023/06/05 00:57:45;;;;;;;8.68;6.22;;;;;;;;;;6308869;22;20010;-95
2023/06/05 01:00:36;;;;;;;9.18;6.05;;;;;;;;;;6307983;22;20033;-94
2023/06/05 01:03:29;;;;;;;12.55;6.45;;;;;;;;;;6307634;22;20056;-94
2023/06/05 01:06:17;;;;;;;12.35;6.57;;;;;;;;;;6309049;22;20010;-93
2023/06/05 01:09:10;;;;;;;10.52;6.07;;;;;;;;;;6306708;22;20098;-93
2023/06/05 01:12:06;;;;;;;12.20;6.20;;;;;;;;;;6308043;22;20018;-93
2023/06/05 01:14:58;;;;;;;9.73;5.60;;;;;;;;;;6306769;22;20018;-93
2023/06/05 01:17:45;;;;;;;10.77;6.47;;;;;;;;;;6308385;22;20046;-93
2023/06/05 01:20:35;;;;;;;14.27;6.40;;;;;;;;;;6307425;22;20334;-93
2023/06/05 01:23:25;;;;;;;10.40;6.57;;;;;;;;;;6306559;22;20060;-94
2023/06/05 01:26:16;;;;;;;9.98;6.30;;;;;;;;;;6307651;22;20092;-93
2023/06/05 01:29:05;;;;;;;11.75;6.90;;;;;;;;;;6288096;22;20085;-94
2023/06/05 01:31:58;;;;;;;12.88;7.03;;;;;;;;;;6307513;22;20014;-94
2023/06/05 01:34:43;;;;;;;11.05;6.38;;;;;;;;;;6287327;22;20026;-95
2023/06/05 01:37:36;;;;;;;10.15;5.85;;;;;;;;;;6307660;22;20041;-93
2023/06/05 01:40:22;;;;;;;16.35;7.40;;;;;;;;;;6307434;22;20060;-94
2023/06/05 01:43:08;;;;;;;12.48;6.45;;;;;;;;;;6306833;22;20018;-94
2023/06/05 01:45:52;;;;;;;14.80;7.28;;;;;;;;;;6307862;22;20018;-93
2023/06/05 01:48:38;;;;;;;16.67;7.40;;;;;;;;;;6306989;22;20018;-94
2023/06/05 01:51:25;;;;;;;13.20;7.13;;;;;;;;;;6308256;22;20026;-94
2023/06/05 01:54:10;;;;;;;13.75;7.55;;;;;;;;;;6306435;22;20058;-93
2023/06/05 01:56:57;;;;;;;14.50;7.03;;;;;;;;;;6306517;22;20081;-93
2023/06/05 01:59:45;;;;;;;14.30;7.65;;;;;;;;;;6307244;22;20105;-93
2023/06/05 02:02:30;;;;;;;14.07;7.20;;;;;;;;;;6308388;22;20009;-94
2023/06/05 02:05:15;;;;;;;15.55;8.35;;;;;;;;;;6307961;22;20141;-93
2023/06/05 02:08:05;;;;;;;13.05;7.35;;;;;;;;;;6306636;22;20444;-93
2023/06/05 02:10:54;;;;;;;12.50;7.13;;;;;;;;;;6307087;22;20014;-93
2023/06/05 02:13:43;;;;;;;12.52;7.70;;;;;;;;;;6308242;22;20437;-94
2023/06/05 02:16:28;;;;;;;17.30;7.10;;;;;;;;;;6306532;22;20057;-94
2023/06/05 02:19:13;;;;;;;16.77;7.72;;;;;;;;;;6306677;22;20504;-94
2023/06/05 02:21:59;;;;;;;13.25;7.85;;;;;;;;;;6307686;22;20010;-93
2023/06/05 02:24:48;;;;;;;14.85;7.32;;;;;;;;;;6306845;22;20448;-93
2023/06/05 02:27:38;;;;;;;13.98;7.43;;;;;;;;;;6286063;22;20014;-93
2023/06/05 02:30:23;;;;;;;11.90;7.35;;;;;;;;;;6307907;22;20013;-93
2023/06/05 02:33:08;;;;;;;13.27;8.18;;;;;;;;;;6306207;22;20069;-94
2023/06/05 02:35:53;;;;;;;12.80;7.10;;;;;;;;;;6307126;22;20026;-93
2023/06/05 02:38:42;;;;;;;17.67;7.63;;;;;;;;;;6306983;22;20120;-93
2023/06/05 02:41:27;;;;;;;13.57;7.05;;;;;;;;;;6285434;22;20046;-94
2023/06/05 02:44:11;;;;;;;14.05;7.85;;;;;;;;;;6305584;22;20100;-94
2023/06/05 02:46:59;;;;;;;12.90;7.15;;;;;;;;;;6306609;22;20066;-94
2023/06/05 02:49:44;;;;;;;13.25;7.78;;;;;;;;;;6307573;22;20015;-93
2023/06/05 02:52:29;;;;;;;13.77;6.90;;;;;;;;;;6308029;22;20440;-93
2023/06/05 02:55:23;;;;;;;12.82;7.55;;;;;;;;;;6307166;22;20053;-93
2023/06/05 02:58:08;;;;;;;12.32;6.80;;;;;;;;;;6306273;22;20038;-93
2023/06/05 03:00:56;;;;;;;17.02;8.18;;;;;;;;;;6306117;22;20084;-94
2023/06/05 03:03:41;;;;;;;14.10;8.27;;;;;;;;;;6306253;22;20067;-94
2023/06/05 03:06:35;;;;;;;13.52;7.68;;;;;;;;;;6307247;22;20010;-93
2023/06/05 03:09:20;;;;;;;14.38;8.55;;;;;;;;;;6307465;22;20752;-93
2023/06/05 03:12:07;;;;;;;13.80;7.13;;;;;;;;;;6306137;22;20064;-94
2023/06/05 03:14:51;;;;;;;12.10;6.65;;;;;;;;;;6275502;22;20035;-93
2023/06/05 03:17:36;;;;;;;13.90;6.00;;;;;;;;;;6275585;22;20014;-93
2023/06/05 03:20:28;;;;;;;9.75;6.43;;;;;;;;;;6274608;22;20026;-94
2023/06/05 03:23:13;;;;;;;11.23;6.38;;;;;;;;;;6275876;22;20050;-94
2023/06/05 03:25:58;;;;;;;14.73;7.35;;;;;;;;;;6275054;22;20061;-93
2023/06/05 03:28:45;;;;;;;12.90;7.03;;;;;;;;;;6274754;22;20030;-94
2023/06/05 03:31:30;;;;;;;14.68;7.32;;;;;;;;;;6276287;22;20042;-93
2023/06/05 03:34:20;;;;;;;12.15;6.68;;;;;;;;;;6274449;22;20026;-94
2023/06/05 03:37:05;;;;;;;12.15;7.30;;;;;;;;;;6276106;22;20015;-94
2023/06/05 03:39:57;;;;;;;9.10;6.57;;;;;;;;;;6253549;22;20337;-94
2023/06/05 03:42:42;;;;;;;13.75;6.68;;;;;;;;;;6253448;22;20341;-93
2023/06/05 03:45:27;;;;;;;10.73;7.15;;;;;;;;;;6275939;22;20015;-93
2023/06/05 03:48:11;;;;;;;10.25;7.15;;;;;;;;;;6274899;22;20011;-93
2023/06/05 03:51:00;;;;;;;10.77;6.40;;;;;;;;;;6276029;22;20014;-94
2023/06/05 03:53:54;;;;;;;11.95;6.75;;;;;;;;;;6276188;22;20072;-95
2023/06/05 03:56:43;;;;;;;14.13;7.03;;;;;;;;;;6276076;22;20060;-93
2023/06/05 03:59:33;;;;;;;12.00;6.80;;;;;;;;;;6276054;22;20015;-94
2023/06/05 04:02:18;;;;;;;13.18;7.10;;;;;;;;;;6275600;22;20015;-93
2023/06/05 04:05:03;;;;;;;13.55;7.15;;;;;;;;;;6275223;22;20076;-94
2023/06/05 04:07:50;;;;;;;9.07;6.30;;;;;;;;;;6275970;22;20065;-93
2023/06/05 04:10:43;;;;;;;12.18;6.43;;;;;;;;;;6276358;22;20042;-93
2023/06/05 04:13:29;;;;;;;13.32;6.82;;;;;;;;;;6289956;22;20621;-94
2023/06/05 04:16:14;;;;;;;9.25;6.22;;;;;;;;;;6306426;22;20487;-93
2023/06/05 04:19:02;;;;;;;11.30;6.50;;;;;;;;;;6306802;22;20457;-92
2023/06/05 04:21:47;;;;;;;9.30;6.40;;;;;;;;;;6305962;22;20049;-93
2023/06/05 04:24:34;;;;;;;9.13;6.28;;;;;;;;;;6306867;22;20018;-94
2023/06/05 04:27:19;;;;;;;11.55;6.40;;;;;;;;;;6305654;22;20015;-94
2023/06/05 04:30:07;;;;;;;12.88;6.97;;;;;;;;;;6284479;22;20017;-94
2023/06/05 04:32:55;;;;;;;12.27;6.80;;;;;;;;;;6305824;22;20014;-94
2023/06/05 04:35:39;;;;;;;9.15;5.50;;;;;;;;;;6306974;22;20026;-93
2023/06/05 04:38:24;;;;;;;12.10;6.28;;;;;;;;;;6306056;22;20019;-94
2023/06/05 04:41:11;;;;;;;8.93;5.63;;;;;;;;;;6305685;22;20334;-94
2023/06/05 04:43:57;;;;;;;9.70;6.15;;;;;;;;;;6287144;22;20018;-95
2023/06/05 04:46:55;;;;;;;14.35;6.97;;;;;;;;;;6307279;22;20129;-94
2023/06/05 04:49:47;;;;;;;8.18;5.25;;;;;;;;;;6305112;22;20010;-93
2023/06/05 04:52:35;;;;;;;10.48;5.60;;;;;;;;;;6306154;22;20010;-94
2023/06/05 04:55:22;;;;;;;9.43;7.03;;;;;;;;;;6306108;22;20058;-93
2023/06/05 04:58:09;;;;;;;10.52;5.63;;;;;;;;;;6307160;22;20213;-93
2023/06/05 05:00:56;;;;;;;9.38;6.47;;;;;;;;;;6306496;22;20045;-93
2023/06/05 05:03:45;;;;;;;11.75;6.55;;;;;;;;;;6311217;22;20067;-93
2023/06/05 05:06:31;;;;;;;13.32;7.65;;;;;;;;;;6306193;22;20046;-93
2023/06/05 05:09:15;;;;;;;10.73;7.38;;;;;;;;;;6308625;22;20061;-95
2023/06/05 05:12:02;;;;;;;12.48;8.23;;;;;;;;;;6308268;22;20329;-94
2023/06/05 05:14:57;;;;;;;12.43;7.88;;;;;;;;;;6309305;22;20080;-94
2023/06/05 05:17:45;;;;;;;11.73;8.23;;;;;;;;;;6317421;22;20063;-94
2023/06/05 05:20:32;;;;;;;12.55;8.70;;;;;;;;;;6310498;22;20010;-94
2023/06/05 05:23:20;;;;;;;10.10;6.32;;;;;;;;;;6331713;22;20014;-94
2023/06/05 05:26:10;;;;;;;10.98;6.55;;;;;;;;;;6334078;22;20006;-94
2023/06/05 05:28:55;;;;;;;8.57;5.93;;;;;;;;;;6327475;22;19994;-92
2023/06/05 05:31:41;;;;;;;6.28;4.00;;;;;;;;;;6331353;22;20033;-93
2023/06/05 05:34:28;;;;;;;6.80;4.43;;;;;;;;;;6331050;22;20026;-93
2023/06/05 05:37:23;;;;;;;;;;;;;;;;;;;;;
2023/06/05 05:40:09;;;;;;;6.35;4.00;;;;;;;;;;6309842;22;20018;-94
2023/06/05 05:42:54;;;;;;;6.68;3.80;;;;;;;;;;6307788;22;20441;-94
2023/06/05 05:45:46;;;;;;;7.03;4.25;;;;;;;;;;6307367;22;20014;-94
2023/06/05 05:48:50;;;;;;;7.45;4.38;;;;;;;;;;6287341;22;20452;-95
2023/06/05 05:51:39;;;;;;;11.50;4.38;;;;;;;;;;6308093;22;20014;-94
2023/06/05 05:54:26;;;;;;;10.68;4.32;;;;;;;;;;6307455;22;20022;-93
2023/06/05 05:57:13;;;;;;;6.72;4.15;;;;;;;;;;6307603;22;20149;-93
2023/06/05 05:59:58;;;;;;;6.97;3.85;;;;;;;;;;6308201;22;20056;-95
2023/06/05 06:02:43;;;;;;;9.43;4.55;;;;;;;;;;6307030;22;20543;-94
2023/06/05 06:05:29;;;;;;;9.50;4.85;;;;;;;;;;6307983;22;20042;-93
2023/06/05 06:08:15;;;;;;;6.60;4.75;;;;;;;;;;6306834;22;20482;-92
2023/06/05 06:10:59;;;;;;;7.20;4.10;;;;;;;;;;6308386;22;20010;-93
2023/06/05 06:13:44;;;;;;;8.80;5.07;;;;;;;;;;6307097;22;20060;-93
2023/06/05 06:16:31;;;;;;;5.63;3.95;;;;;;;;;;6306436;22;20060;-93
2023/06/05 06:19:23;;;;;;;7.15;4.57;;;;;;;;;;6306771;22;20014;-93
2023/06/05 06:22:11;;;;;;;8.20;4.10;;;;;;;;;;6307115;22;20018;-92
2023/06/05 06:24:57;;;;;;;6.38;4.10;;;;;;;;;;6285623;22;20050;-94
2023/06/05 06:27:45;;;;;;;9.30;3.75;;;;;;;;;;6306501;22;20010;-93
2023/06/05 06:30:37;;;;;;;6.75;4.07;;;;;;;;;;6307454;22;20013;-94
2023/06/05 06:33:29;;;;;;;7.20;3.47;;;;;;;;;;6306928;22;20054;-93
2023/06/05 06:36:16;;;;;;;5.95;3.97;;;;;;;;;;6306726;22;20014;-93
2023/06/05 06:39:04;;;;;;;6.18;4.07;;;;;;;;;;6307029;22;20033;-92
2023/06/05 06:41:53;;;;;;;5.70;3.17;;;;;;;;;;6307002;22;20026;-94
2023/06/05 06:44:40;;;;;;;7.53;3.88;;;;;;;;;;6306776;22;20017;-92
2023/06/05 06:47:25;;;;;;;7.38;3.40;;;;;;;;;;6306700;22;20013;-92
2023/06/05 06:50:13;;;;;;;5.18;3.80;;;;;;;;;;6307037;22;20022;-93
2023/06/05 06:53:01;;;;;;;5.47;3.53;;;;;;;;;;6306729;22;20013;-93
2023/06/05 06:55:46;;;;;;;5.13;3.38;;;;;;;;;;6305874;22;20010;-93
2023/06/05 06:58:31;;;;;;;5.32;3.47;;;;;;;;;;6306154;22;20334;-92
2023/06/05 07:01:15;;;;;;;5.57;3.35;;;;;;;;;;6306260;22;20022;-93
2023/06/05 07:04:00;;;;;;;6.03;3.25;;;;;;;;;;6306742;22;20065;-91
2023/06/05 07:06:44;;;;;;;5.93;3.70;;;;;;;;;;6306529;22;20010;-91
2023/06/05 07:09:29;;;;;;;5.22;3.20;;;;;;;;;;6306043;22;20351;-95
2023/06/05 07:12:15;;;;;;;4.88;3.35;;;;;;;;;;6306189;22;20014;-94
2023/06/05 07:14:59;;;;;;;7.53;3.13;;;;;;;;;;6307533;22;20084;-92
2023/06/05 07:17:46;;;;;;;5.15;3.05;;;;;;;;;;6307198;22;20464;-93
2023/06/05 07:20:33;;;;;;;6.32;3.15;;;;;;;;;;6306959;22;20015;-94
2023/06/05 07:23:21;;;;;;;4.57;3.00;;;;;;;;;;6305827;22;20014;-92
2023/06/05 07:26:06;;;;;;;4.78;2.90;;;;;;;;;;6305877;22;20058;-92
2023/06/05 07:28:54;;;;;;;5.78;3.15;;;;;;;;;;6284254;22;20053;-93
2023/06/05 07:31:38;;;;;;;5.00;2.78;;;;;;;;;;6283835;22;20341;-92
2023/06/05 07:34:24;;;;;;;4.88;3.17;;;;;;;;;;6306951;22;20021;-93
2023/06/05 07:37:09;;;;;;;8.38;2.83;;;;;;;;;;6306219;22;20458;-94
2023/06/05 07:39:54;;;;;;;4.90;2.70;;;;;;;;;;6306007;22;20048;-93
2023/06/05 07:42:43;;;;;;;5.05;2.97;;;;;;;;;;6305850;22;20010;-91
2023/06/05 07:45:35;;;;;;;4.55;2.92;;;;;;;;;;6307266;22;20468;-93
2023/06/05 07:48:20;;;;;;;5.22;2.80;;;;;;;;;;6307434;22;20046;-92
2023/06/05 07:51:08;;;;;;;5.07;2.90;;;;;;;;;;6306209;22;20448;-92
2023/06/05 07:54:02;;;;;;;5.95;2.80;;;;;;;;;;6305558;22;20026;-93
2023/06/05 07:56:52;;;;;;;6.50;2.90;;;;;;;;;;6306507;22;20022;-93
2023/06/05 07:59:37;;;;;;;5.55;3.10;;;;;;;;;;6284935;22;20018;-93
2023/06/05 08:02:23;;;;;;;3.78;2.65;;;;;;;;;;6284132;22;20018;-93
2023/06/05 08:05:08;;;;;;;4.80;2.67;;;;;;;;;;6306352;22;20014;-92
2023/06/05 08:07:58;;;;;;;6.80;2.55;;;;;;;;;;6306358;22;20014;-92
2023/06/05 08:10:47;;;;;;;4.20;3.03;;;;;;;;;;6284055;22;20081;-92
2023/06/05 08:13:32;;;;;;;8.25;3.15;;;;;;;;;;6306907;22;20053;-91
2023/06/05 08:16:19;;;;;;;3.53;2.45;;;;;;;;;;6305689;22;20018;-93
2023/06/05 08:19:04;;;;;;;4.80;2.72;;;;;;;;;;6307090;22;20061;-92
2023/06/05 08:21:56;;;;;;;4.78;2.42;;;;;;;;;;6306729;22;20086;-92
2023/06/05 08:24:41;;;;;;;4.88;2.60;;;;;;;;;;6306409;22;20058;-92
2023/06/05 08:27:25;;;;;;;5.78;2.60;;;;;;;;;;6305389;22;20018;-92
2023/06/05 08:30:11;;;;;;;5.30;2.80;;;;;;;;;;6305145;22;20018;-92
2023/06/05 08:32:55;;;;;;;4.32;2.30;;;;;;;;;;6304721;22;20065;-92
2023/06/05 08:35:41;;;;;;;5.72;2.95;;;;;;;;;;6306373;22;20080;-92
2023/06/05 08:38:26;;;;;;;5.75;3.00;;;;;;;;;;6306704;22;20460;-92
2023/06/05 08:41:10;;;;;;;4.18;2.60;;;;;;;;;;6306955;22;20449;-91
2023/06/05 08:43:55;;;;;;;5.78;2.90;;;;;;;;;;6311266;22;20014;-92
2023/06/05 08:46:41;;;;;;;5.32;3.70;;;;;;;;;;6308825;22;20090;-95
2023/06/05 08:49:35;;;;;;;7.07;2.90;;;;;;;;;;6307901;22;20014;-93
2023/06/05 08:52:21;;;;;;;3.30;2.30;;;;;;;;;;6307052;22;20014;-91
2023/06/05 08:55:09;;;;;;;4.80;2.83;;;;;;;;;;6308317;22;20113;-92
2023/06/05 08:57:54;;;;;;;4.80;2.97;;;;;;;;;;6307881;22;20341;-91
2023/06/05 09:00:40;;;;;;;6.20;3.15;;;;;;;;;;6285241;22;20098;-92
2023/06/05 09:03:25;;;;;;;10.05;2.80;;;;;;;;;;6307852;22;20097;-91
2023/06/05 09:06:12;;;;;;;4.57;2.70;;;;;;;;;;6284825;22;20088;-92
2023/06/05 09:09:00;;;;;;;6.13;3.28;;;;;;;;;;6306906;22;20018;-93
2023/06/05 09:11:44;;;;;;;4.50;2.80;;;;;;;;;;6306279;22;20010;-94
2023/06/05 09:14:30;;;;;;;4.00;2.60;;;;;;;;;;6285010;22;20084;-93
2023/06/05 09:17:16;;;;;;;5.78;3.28;;;;;;;;;;6285688;22;20017;-93
2023/06/05 09:20:02;;;;;;;5.70;3.38;;;;;;;;;;6307699;22;20026;-93
2023/06/05 09:22:47;;;;;;;5.28;3.00;;;;;;;;;;6306471;22;20022;-93
2023/06/05 09:25:58;;;;;;;5.82;2.70;;;20.30;92.40;;;;;;6306818;22;20018;-92
2023/06/05 09:29:09;;;;;;;5.85;3.03;;;;;;;;;;6285033;22;20042;-93
2023/06/05 09:31:58;;;;;;;7.25;3.35;;;;;;;;;;6307749;22;20021;-92
2023/06/05 09:34:44;;;;;;;5.63;3.20;;;;;;;;;;6285556;22;20022;-92
2023/06/05 09:37:36;;;;;;;4.03;2.63;;;;;;;;;;6308513;22;20467;-91
2023/06/05 09:40:37;;;;;;;5.50;2.85;;;20.50;91.20;;;;;;6307358;22;20037;-91
2023/06/05 09:43:25;;;;;;;6.47;3.20;;;;;;;;;;6284818;22;20073;-91
2023/06/05 09:46:11;;;;;;;4.45;2.95;;;;;;;;;;6306876;22;20081;-90
2023/06/05 09:49:01;;;;;;;4.28;2.60;;;20.50;90.90;;;;;;6306744;22;20014;-90
2023/06/05 09:51:46;;;;;;;5.18;2.88;;;;;;;;;;6308048;22;20342;-91
2023/06/05 09:54:31;;;;;;;4.63;3.15;;;;;;;;;;6306181;22;20053;-91
2023/06/05 09:57:16;;;;;;;9.57;3.40;;;;;;;;;;6308183;22;20061;-91
2023/06/05 10:00:06;;;;;;;6.57;3.70;;;;;;;;;;6307567;22;20099;-92
2023/06/05 10:02:52;;;;;;;6.30;3.67;;;;;;;;;;6305991;22;20057;-92
2023/06/05 10:05:38;;;;;;;4.75;3.45;;;;;;;;;;6307414;22;20361;-90
2023/06/05 10:08:24;;;;;;;8.10;4.53;;;;;;;;;;6307631;22;20013;-89
2023/06/05 10:11:10;;;;;;;5.43;2.60;;;;;;;;;;6307526;22;20073;-91
2023/06/05 10:13:55;;;;;;;6.75;3.70;;;;;;;;;;6284453;22;20350;-90
2023/06/05 10:16:40;;;;;;;5.40;3.40;;;;;;;;;;6307899;22;20105;-91
2023/06/05 10:19:24;;;;;;;5.95;3.20;;;;;;;;;;6306470;22;20044;-89
2023/06/05 10:22:13;;;;;;;6.32;3.53;;;;;;;;;;6285232;22;20015;-91
2023/06/05 10:25:00;;;;;;;5.90;3.53;;;;;;;;;;6285162;22;20072;-90
2023/06/05 10:27:53;;;;;;;8.70;4.38;;;;;;;;;;6306632;22;20049;-91
2023/06/05 10:30:50;;;;;;;;;;;21.70;83.60;;;;;;6308243;22;20384;-91
2023/06/05 10:34:00;;;;;;;8.38;3.90;;;;;;;;;;6307674;22;19918;-90
2023/06/05 10:36:44;;;;;;;5.93;3.80;;;;;;;;;;6308462;22;20014;-91
2023/06/05 10:39:29;;;;;;;5.65;3.10;;;;;;;;;;6308397;22;20010;-92
2023/06/05 10:42:25;;;;;;;6.00;3.47;;;21.80;85.00;;;;;;6307941;22;20038;-92
2023/06/05 10:45:10;;;;;;;6.80;3.35;;;;;;;;;;6307734;22;20018;-92
2023/06/05 10:47:55;;;;;;;4.68;3.50;;;;;;;;;;6305136;22;20060;-92
2023/06/05 10:50:40;;;;;;;4.53;3.50;;;;;;;;;;6305497;22;20338;-92
2023/06/05 10:53:43;;;;;;;6.68;4.05;;;;;;;;;;6284018;22;20015;-92
2023/06/05 10:56:59;;;;;;;6.75;3.30;;;;;;;;;;6307161;22;20045;-92
2023/06/05 10:59:44;;;;;;;4.80;3.38;;;;;;;;;;6277523;22;20057;-91
2023/06/05 11:02:28;;;;;;;8.55;4.15;;;;;;;;;;6283935;22;20061;-91
2023/06/05 11:05:13;;;;;;;7.15;3.65;;;;;;;;;;6304626;22;20022;-92
2023/06/05 11:08:25;;;;;;;4.30;3.22;;;;;;;;;;6283426;22;20014;-93
2023/06/05 11:11:12;;;;;;;6.72;3.70;;;;;;;;;;6306379;22;20011;-93
2023/06/05 11:13:58;;;;;;;9.40;3.80;;;;;;;;;;6305724;22;20384;-90
2023/06/05 11:16:42;;;;;;;4.75;3.08;;;;;;;;;;6305382;22;20050;-91
2023/06/05 11:19:29;;;;;;;4.93;3.42;;;;;;;;;;6305384;22;20457;-91
2023/06/05 11:22:14;;;;;;;7.70;3.60;;;;;;;;;;6304790;22;20010;-91
2023/06/05 11:25:17;;;;;;;5.75;3.13;;;;;;;;;;6306568;22;20017;-90
2023/06/05 11:28:04;;;;;;;7.00;4.35;;;;;;;;;;6304483;22;20061;-92
2023/06/05 11:30:49;;;;;;;4.63;3.08;;;;;;;;;;6306618;22;20068;-91
2023/06/05 11:33:34;;;;;;;6.70;3.88;;;;;;;;;;6305486;22;20021;-91
2023/06/05 11:36:24;;;;;;;5.10;3.28;;;;;;;;;;6283011;22;20018;-92
2023/06/05 11:39:10;;;;;;;4.93;2.97;;;;;;;;;;6306715;22;20057;-91
2023/06/05 11:41:55;;;;;;;5.40;3.15;;;;;;;;;;6283797;22;20456;-92
2023/06/05 11:44:39;;;;;;;6.15;2.78;;;;;;;;;;6306665;22;20022;-91
2023/06/05 11:47:31;;;;;;;5.63;3.50;;;;;;;;;;6305836;22;20010;-91
2023/06/05 11:50:16;;;;;;;5.05;3.20;;;;;;;;;;6305958;22;20009;-90
2023/06/05 11:53:07;;;;;;;6.72;3.10;;;;;;;;;;6306366;22;20066;-92
2023/06/05 11:58:39;;;;;;;6.20;3.03;;;;;;;;;;6320572;22;20341;-92
2023/06/05 12:01:31;;;;;;;4.35;2.40;;;;;;;;;;6322776;22;20060;-91
2023/06/05 12:04:16;;;;;;;3.95;2.55;;;;;;;;;;6321561;22;20062;-91
2023/06/05 12:07:02;;;;;;;8.23;2.72;;;;;;;;;;6320883;22;20064;-89
2023/06/05 12:09:53;;;;;;;6.18;2.90;;;;;;;;;;6319551;22;20072;-92
2023/06/05 12:12:51;;;;;;;8.95;3.78;;;;;;;;;;6284690;22;20046;-90
2023/06/05 12:15:36;;;;;;;4.88;3.17;;;;;;;;;;6306530;22;20337;-90
2023/06/05 12:18:20;;;;;;;7.75;2.70;;;;;;;;;;6286237;22;20093;-91
2023/06/05 12:21:07;;;;;;;6.85;3.10;;;;;;;;;;6286443;22;20349;-91
2023/06/05 12:23:52;;;;;;;4.28;2.90;;;;;;;;;;6308458;22;20026;-91
2023/06/05 12:26:59;;;;;;;3.97;2.70;;;23.40;76.60;;;;;;6308553;22;20010;-90
2023/06/05 12:29:54;;;;;;;5.53;3.00;;;;;;;;;;6308465;22;20010;-93
2023/06/05 12:32:39;;;;;;;5.53;3.53;;;;;;;;;;6309101;22;20569;-91
2023/06/05 12:35:27;;;;;;;5.53;2.88;;;;;;;;;;6308260;22;20022;-91
2023/06/05 12:38:12;;;;;;;7.68;3.30;;;;;;;;;;6307455;22;20018;-91
2023/06/05 12:40:57;;;;;;;5.68;2.92;;;;;;;;;;6308956;22;20014;-91
2023/06/05 12:43:42;;;;;;;5.93;2.40;;;;;;;;;;6307502;22;20019;-91
2023/06/05 12:46:26;;;;;;;8.40;3.10;;;;;;;;;;6307367;22;20057;-91
2023/06/05 12:49:11;;;;;;;7.50;2.80;;;;;;;;;;6306832;22;20013;-93
2023/06/05 12:51:57;;;;;;;6.40;2.70;;;;;;;;;;6309194;22;20061;-90
2023/06/05 12:54:41;;;;;;;5.38;3.10;;;;;;;;;;6286144;22;20461;-90
2023/06/05 12:57:26;;;;;;;5.22;2.90;;;;;;;;;;6307328;22;20014;-91
2023/06/05 13:00:12;;;;;;;5.03;2.60;;;;;;;;;;6307294;22;20014;-94
2023/06/05 13:02:57;;;;;;;4.32;2.65;;;;;;;;;;6285855;22;20061;-89
2023/06/05 13:05:41;;;;;;;5.65;2.50;;;;;;;;;;6306989;22;20037;-90
2023/06/05 13:08:26;;;;;;;5.55;2.40;;;;;;;;;;6306928;22;20061;-91
2023/06/05 13:11:11;;;;;;;4.18;2.90;;;;;;;;;;6285690;22;20448;-91
2023/06/05 13:13:56;;;;;;;4.57;3.35;;;;;;;;;;6308172;22;20502;-90
2023/06/05 13:16:41;;;;;;;8.50;3.17;;;;;;;;;;6307470;22;20014;-91
2023/06/05 13:19:25;;;;;;;4.85;2.58;;;;;;;;;;6285173;22;20422;-90
2023/06/05 13:22:10;;;;;;;6.50;2.75;;;;;;;;;;6307641;22;20448;-90
2023/06/05 13:24:54;;;;;;;5.32;2.63;;;;;;;;;;6307005;22;20022;-92
2023/06/05 13:27:39;;;;;;;6.40;3.03;;;;;;;;;;6307661;22;20392;-90
2023/06/05 13:30:24;;;;;;;3.58;2.22;;;;;;;;;;6285415;22;20018;-89
2023/06/05 13:33:08;;;;;;;7.05;2.53;;;;;;;;;;6308284;22;20014;-90
2023/06/05 13:35:56;;;;;;;6.13;2.72;;;;;;;;;;6307325;22;20021;-91
2023/06/05 13:38:43;;;;;;;4.80;2.80;;;;;;;;;;6306981;22;20380;-91
2023/06/05 13:41:28;;;;;;;3.10;2.00;;;;;;;;;;6307832;22;20072;-91
2023/06/05 13:44:12;;;;;;;5.30;3.08;;;;;;;;;;6308621;22;20384;-89
2023/06/05 13:46:57;;;;;;;10.85;3.33;;;;;;;;;;6285436;22;20453;-91
2023/06/05 13:49:42;;;;;;;3.95;2.38;;;;;;;;;;6306252;22;20049;-90
2023/06/05 13:52:26;;;;;;;4.53;2.78;;;;;;;;;;6306123;22;20460;-92
2023/06/05 13:55:11;;;;;;;4.55;2.45;;;;;;;;;;6307856;22;20457;-92
2023/06/05 13:58:01;;;;;;;9.48;2.80;;;;;;;;;;6308415;22;20059;-90
2023/06/05 14:00:45;;;;;;;5.10;2.63;;;;;;;;;;6306558;22;20089;-92
2023/06/05 14:03:30;;;;;;;5.85;2.30;;;;;;;;;;6306965;22;20014;-90
2023/06/05 14:06:14;;;;;;;4.00;2.35;;;;;;;;;;6307134;22;20096;-91
2023/06/05 14:08:59;;;;;;;4.63;2.33;;;;;;;;;;6285360;22;20014;-90
2023/06/05 14:11:44;;;;;;;4.72;3.00;;;;;;;;;;6284489;22;20029;-91
2023/06/05 14:14:29;;;;;;;4.95;2.92;;;;;;;;;;6283986;22;20069;-90
2023/06/05 14:17:14;;;;;;;3.85;2.58;;;;;;;;;;6306814;22;20361;-91
2023/06/05 14:19:59;;;;;;;5.70;2.70;;;;;;;;;;6284691;22;20491;-90
2023/06/05 14:22:44;;;;;;;4.82;2.70;;;;;;;;;;6283873;22;20026;-91
2023/06/05 14:25:29;;;;;;;7.47;3.22;;;;;;;;;;6306558;22;20014;-91
2023/06/05 14:28:14;;;;;;;7.00;3.92;;;;;;;;;;6306643;22;20399;-90
2023/06/05 14:30:59;;;;;;;6.03;3.15;;;;;;;;;;6306828;22;20041;-90
2023/06/05 14:33:46;;;;;;;5.25;3.53;;;;;;;;;;6305342;22;20068;-91
2023/06/05 14:36:31;;;;;;;4.90;2.95;;;;;;;;;;6306506;22;20014;-91
2023/06/05 14:39:16;;;;;;;5.70;3.40;;;;;;;;;;6306987;22;20064;-91
2023/06/05 14:42:01;;;;;;;8.32;3.30;;;;;;;;;;6305869;22;20061;-90
2023/06/05 14:44:46;;;;;;;6.55;3.90;;;;;;;;;;6306827;22;20022;-90
2023/06/05 14:47:30;;;;;;;7.95;3.40;;;;;;;;;;6305324;22;20535;-91
2023/06/05 14:50:15;;;;;;;7.03;3.65;;;;;;;;;;6306942;22;20061;-91
2023/06/05 14:53:00;;;;;;;7.45;3.15;;;;;;;;;;6306959;22;20014;-90
2023/06/05 14:55:45;;;;;;;6.10;3.78;;;;;;;;;;6304739;22;20038;-91
2023/06/05 14:58:30;;;;;;;8.20;3.88;;;;;;;;;;6305680;22;20049;-92
2023/06/05 15:01:14;;;;;;;6.20;3.67;;;;;;;;;;6306263;22;20326;-92
2023/06/05 15:03:59;;;;;;;9.93;3.65;;;;;;;;;;6305118;22;20117;-91
2023/06/05 15:06:43;;;;;;;6.95;3.92;;;;;;;;;;6282662;22;20133;-92
2023/06/05 15:09:29;;;;;;;6.60;3.38;;;;;;;;;;6309139;22;20026;-93
2023/06/05 15:12:13;;;;;;;6.05;3.53;;;;;;;;;;6284630;22;20018;-91
2023/06/05 15:14:58;;;;;;;6.03;3.97;;;;;;;;;;6304597;22;20076;-93
2023/06/05 15:17:42;;;;;;;7.47;3.80;;;;;;;;;;6282422;22;20019;-90
2023/06/05 15:20:27;;;;;;;5.55;3.40;;;;;;;;;;6304682;22;20033;-94
2023/06/05 15:23:13;;;;;;;10.65;4.25;;;;;;;;;;6282945;22;20018;-94
2023/06/05 15:25:58;;;;;;;5.95;3.55;;;;;;;;;;6283730;22;20054;-91
2023/06/05 15:28:42;;;;;;;4.47;3.50;;;;;;;;;;6304541;22;20018;-91
2023/06/05 15:31:27;;;;;;;6.95;3.85;;;;;;;;;;6304889;22;20358;-92
2023/06/05 15:34:12;;;;;;;7.50;4.03;;;;;;;;;;6304567;22;20018;-93
2023/06/05 15:36:57;;;;;;;7.80;3.63;;;;;;;;;;6318027;22;20056;-90
2023/06/05 15:39:45;;;;;;;6.75;4.05;;;;;;;;;;6307447;22;20018;-93
2023/06/05 15:42:34;;;;;;;6.97;3.30;;;;;;;;;;6282810;22;20087;-93
2023/06/05 15:45:18;;;;;;;5.70;3.88;;;;;;;;;;6306064;22;20022;-92
2023/06/05 15:48:03;;;;;;;6.47;3.28;;;;;;;;;;6306240;22;20515;-91
2023/06/05 15:50:48;;;;;;;6.35;3.95;;;;;;;;;;6305004;22;20061;-92
2023/06/05 15:53:33;;;;;;;6.65;4.10;;;;;;;;;;6306341;22;20026;-91
2023/06/05 15:56:18;;;;;;;5.72;3.33;;;;;;;;;;6306294;22;20487;-92
2023/06/05 15:59:02;;;;;;;7.28;3.55;;;;;;;;;;6283101;22;20064;-92
2023/06/05 16:01:48;;;;;;;5.60;3.28;;;;;;;;;;6305304;22;20068;-92
2023/06/05 16:04:33;;;;;;;5.43;3.67;;;;;;;;;;6305668;22;20396;-94
2023/06/05 16:07:18;;;;;;;8.02;3.90;;;;;;;;;;6306155;22;20448;-92
2023/06/05 16:10:03;;;;;;;8.65;3.95;;;;;;;;;;6282832;22;20030;-92
2023/06/05 16:12:48;;;;;;;7.30;4.80;;;;;;;;;;6304057;22;20017;-91
2023/06/05 16:15:33;;;;;;;7.07;4.40;;;;;;;;;;6283324;22;20096;-92
2023/06/05 16:18:17;;;;;;;6.20;3.95;;;;;;;;;;6306539;22;20507;-91
2023/06/05 16:21:02;;;;;;;8.18;4.03;;;;;;;;;;6283625;22;20378;-92
2023/06/05 16:23:47;;;;;;;9.65;3.80;;;;;;;;;;6304742;22;20338;-93
2023/06/05 16:26:31;;;;;;;10.45;3.83;;;;;;;;;;6304722;22;20065;-92
2023/06/05 16:29:16;;;;;;;5.68;3.92;;;;;;;;;;6305237;22;20472;-92
2023/06/05 16:32:01;;;;;;;9.27;3.92;;;;;;;;;;6282855;22;20018;-91
2023/06/05 16:34:45;;;;;;;7.95;4.13;;;;;;;;;;6304003;22;20023;-92
2023/06/05 16:37:30;;;;;;;6.82;3.75;;;;;;;;;;6306148;22;20060;-92
2023/06/05 16:40:15;;;;;;;7.65;3.90;;;;;;;;;;6305010;22;20330;-92